Airfield :
LOGIN :

Register | Disclaimer

   EN    FR    IT 

 










Legend :    VFR   Marginal VFR   IFR   Intensive IFR   Very Intensive IFR
Visi :
Ceiling :
>= 8 km
>= 3000ft
5 to 8 km
1000 to 3000 ft
1500m to 5 km
500 to 1000 ft
800 to 1500m
200 to 500 ft
< 800m
< 200 ft
Symbols :   Thunderstorms  Fog  Heavy snow  Heavy precipitations  Wind > 20 kt
SIGMETs :     Misc.  Thunderstorms  Icing  Turbulence  Mountain Waves  Volcanic Ashes






- Airport Elevation : 30 ft
- IATA code : CFN


EIDL - Donegal

CURRENT METAR :
  • 151730Z 27014KT 2100 BR BKN004 OVC008 14/13 Q1018

EXPIRED METARs :
  • 151700Z 27015KT 2700 BR OVC004 14/13 Q1018
  • 151630Z 27012KT 8000 BKN006 OVC009 14/13 Q1017
  • 151600Z 27013KT 7000 OVC007 14/13 Q1017
  • 151500Z 27013KT 9999 OVC008 14/13 Q1017

TAF TAF EIDL
Valid from the 15 at 18:00 until the 16 at 03:00 UTC


151700Z 1518/1603 27014KT 7000 BKN008
TEMPO 1518/1603 2500 -DZ BR BKN004
PROB30
TEMPO 1518/1603 1500 BKN002
BECMG 1523/1601 24010KT



MET'MAP, your aeronautical weather chart ! - Copyright ORBIFLY December 2007 - Disclaimer

ORBIFLY MET'MAP TEAM :

Programming & Development : Alexandra Zaïnal
Concept & original design : Baudouin d'Aumeries
Assistance for programming : Marc-Olivier Méhu
Technical & hardware support : Manuel Goepfert

Contact : metmap@orbifly.com




SOURCES & CREDITS :

   NOAA